Time;durP1;ratioP1;P1;durP2;ratioP2;P2;SDS_P1;SDS_P2;PMS_P1;PMS_P2;Temp;Humidity;BMP_temperature;BMP_pressure;BME280_temperature;BME280_humidity;BME280_pressure;Samples;Min_cycle;Max_cycle;Signal;HPM_P1;HPM_P2
2021/07/09 00:01:50;;;;;;;5.38;2.35;;;;;;;15.82;99.57;99248.97;5156054;27;20104;-79
2021/07/09 00:04:17;;;;;;;7.07;2.47;;;;;;;15.73;99.60;99236.50;5154968;27;20050;-79
2021/07/09 00:06:44;;;;;;;4.82;2.50;;;;;;;15.73;98.84;99242.84;5156340;27;20043;-78
2021/07/09 00:09:11;;;;;;;3.00;2.63;;;;;;;15.69;100.00;99243.50;5155209;27;20042;-79
2021/07/09 00:11:42;;;;;;;4.43;2.10;;;;;;;15.77;100.00;99251.47;5155832;27;20050;-79
2021/07/09 00:14:12;;;;;;;4.45;2.47;;;;;;;15.78;99.81;99246.84;5155348;27;20515;-79
2021/07/09 00:16:41;;;;;;;8.30;2.50;;;;;;;15.75;99.24;99246.19;5155262;27;20078;-79
2021/07/09 00:19:08;;;;;;;4.40;2.53;;;;;;;15.77;99.25;99262.44;5155550;27;20061;-79
2021/07/09 00:21:36;;;;;;;6.97;3.28;;;;;;;15.81;99.71;99258.22;5154945;27;20061;-79
2021/07/09 00:24:05;;;;;;;3.33;2.30;;;;;;;15.80;98.32;99256.53;5155717;27;20095;-79
2021/07/09 00:26:32;;;;;;;4.05;2.65;;;;;;;15.85;100.00;99262.22;5155107;27;20550;-79
2021/07/09 00:28:59;;;;;;;3.15;2.22;;;;;;;15.64;99.57;99249.63;5155198;27;20046;-80
2021/07/09 00:31:29;;;;;;;6.43;2.30;;;;;;;15.68;98.75;99255.50;5155635;27;20394;-80
2021/07/09 00:33:56;;;;;;;3.30;1.95;;;;;;;15.60;99.54;99253.00;5154265;27;20039;-79
2021/07/09 00:36:23;;;;;;;5.78;2.03;;;;;;;15.58;99.87;99254.06;5154424;27;20569;-79
2021/07/09 00:38:50;;;;;;;7.75;2.20;;;;;;;15.71;100.00;99255.06;5154848;27;20102;-79
2021/07/09 00:41:17;;;;;;;3.10;2.42;;;;;;;15.56;100.00;99247.94;5154627;27;20047;-79
2021/07/09 00:43:44;;;;;;;7.60;2.35;;;;;;;15.52;100.00;99256.81;5154169;27;20099;-78
2021/07/09 00:46:11;;;;;;;4.45;2.38;;;;;;;15.50;99.59;99253.44;5155097;27;20046;-79
2021/07/09 00:48:39;;;;;;;2.90;2.28;;;;;;;15.62;100.00;99259.13;5155465;27;20054;-79
2021/07/09 00:51:08;;;;;;;5.72;2.05;;;;;;;15.49;100.00;99249.88;5154234;27;20035;-78
2021/07/09 00:53:35;;;;;;;5.40;2.50;;;;;;;15.65;100.00;99270.47;5153706;27;20038;-79
2021/07/09 00:56:02;;;;;;;4.85;2.42;;;;;;;15.64;100.00;99263.34;5154895;27;20043;-79
2021/07/09 00:58:29;;;;;;;6.97;2.45;;;;;;;15.50;100.00;99261.66;5154272;27;20047;-79
2021/07/09 01:00:57;;;;;;;5.35;2.20;;;;;;;15.46;100.00;99249.44;5154151;27;20091;-79
2021/07/09 01:03:24;;;;;;;2.42;1.95;;;;;;;15.38;100.00;99247.78;5154259;27;20047;-79
2021/07/09 01:05:52;;;;;;;3.67;2.20;;;;;;;15.49;99.78;99254.50;5153999;27;20493;-79
2021/07/09 01:08:19;;;;;;;3.22;1.95;;;;;;;15.56;100.00;99255.31;5153898;27;20062;-79
2021/07/09 01:10:47;;;;;;;3.45;2.38;;;;;;;15.56;99.74;99261.63;5148209;27;20147;-79
2021/07/09 01:13:15;;;;;;;4.00;2.47;;;;;;;15.64;100.00;99262.47;5154528;27;20451;-79
2021/07/09 01:15:42;;;;;;;9.10;2.22;;;;;;;15.55;100.00;99261.84;5154322;27;20458;-79
2021/07/09 01:18:09;;;;;;;3.08;1.98;;;;;;;15.46;100.00;99255.78;5154201;27;20054;-79
2021/07/09 01:20:35;;;;;;;3.10;2.00;;;;;;;15.42;100.00;99259.19;5153810;27;20055;-79
2021/07/09 01:23:04;;;;;;;6.57;2.05;;;;;;;15.48;100.00;99263.78;5153654;27;20121;-79
2021/07/09 01:25:32;;;;;;;6.03;2.40;;;;;;;15.37;100.00;99254.31;5154046;27;20103;-79
2021/07/09 01:28:02;;;;;;;2.97;2.13;;;;;;;15.45;100.00;99261.47;5154171;27;20505;-79
2021/07/09 01:30:29;;;;;;;5.20;2.58;;;;;;;15.40;100.00;99249.25;5153327;27;20102;-79
2021/07/09 01:32:57;;;;;;;7.03;2.40;;;;;;;15.39;100.00;99268.66;5154193;27;20062;-79
2021/07/09 01:35:27;;;;;;;6.10;2.05;;;;;;;15.30;100.00;99251.59;5153339;27;20047;-79
2021/07/09 01:37:58;;;;;;;12.57;2.75;;;;;;;15.36;100.00;99252.66;5154123;27;20043;-79
2021/07/09 01:40:26;;;;;;;6.10;2.70;;;;;;;15.34;100.00;99252.00;5152803;27;20525;-80
2021/07/09 01:42:55;;;;;;;2.75;2.10;;;;;;;15.34;100.00;99250.13;5153138;27;20110;-79
2021/07/09 01:45:22;;;;;;;5.10;2.40;;;;;;;15.34;100.00;99249.25;5152695;27;20047;-79
2021/07/09 01:47:49;;;;;;;3.85;3.00;;;;;;;15.29;100.00;99247.16;5149570;27;20459;-79
2021/07/09 01:50:17;;;;;;;11.77;2.70;;;;;;;15.03;100.00;99237.94;5153889;27;20055;-79
2021/07/09 01:52:45;;;;;;;4.18;3.08;;;;;;;15.14;100.00;99263.00;5152353;27;20045;-81
2021/07/09 01:55:13;;;;;;;8.48;3.10;;;;;;;15.17;100.00;99260.66;5153975;27;20042;-81
2021/07/09 01:57:40;;;;;;;5.45;2.95;;;;;;;15.19;100.00;99263.19;5152328;27;20046;-81
2021/07/09 02:00:11;;;;;;;4.60;2.33;;;;;;;15.11;100.00;99250.56;5153597;27;20074;-81
2021/07/09 02:02:39;;;;;;;8.77;2.67;;;;;;;15.15;100.00;99257.31;5152967;27;20099;-81
2021/07/09 02:05:09;;;;;;;9.25;3.22;;;;;;;15.20;100.00;99257.53;5153517;27;20131;-81
2021/07/09 02:07:37;;;;;;;7.90;3.17;;;;;;;15.22;100.00;99255.41;5154345;27;20043;-80
2021/07/09 02:10:07;;;;;;;5.00;3.25;;;;;;;15.27;100.00;99249.28;5153393;27;20043;-81
2021/07/09 02:12:34;;;;;;;6.13;3.33;;;;;;;15.30;100.00;99256.25;5153326;27;20058;-81
2021/07/09 02:15:02;;;;;;;4.82;3.05;;;;;;;15.19;100.00;99239.41;5151478;27;20043;-81
2021/07/09 02:17:31;;;;;;;4.75;3.35;;;;;;;15.17;100.00;99233.28;5152420;27;20050;-81
2021/07/09 02:19:57;;;;;;;6.35;3.33;;;;;;;15.14;100.00;99247.41;5153938;27;20042;-81
2021/07/09 02:22:24;;;;;;;5.93;3.15;;;;;;;15.21;100.00;99248.25;5153242;27;20047;-81
2021/07/09 02:24:51;;;;;;;4.53;3.30;;;;;;;15.13;100.00;99248.47;5152584;27;20070;-81
2021/07/09 02:27:18;;;;;;;5.45;3.28;;;;;;;15.14;100.00;99254.78;5153381;27;20386;-81
2021/07/09 02:29:45;;;;;;;6.18;3.28;;;;;;;15.10;100.00;99254.38;5152642;27;20043;-81
2021/07/09 02:32:13;;;;;;;7.00;3.45;;;;;;;15.24;100.00;99255.19;5150185;27;20046;-81
2021/07/09 02:34:42;;;;;;;4.03;3.30;;;;;;;15.13;100.00;99248.47;5152021;27;20497;-80
2021/07/09 02:37:11;;;;;;;5.45;2.65;;;;;;;15.10;100.00;99248.91;5152444;27;20043;-80
2021/07/09 02:39:40;;;;;;;7.07;3.20;;;;;;;15.08;100.00;99252.91;5153019;27;20138;-80
2021/07/09 02:42:07;;;;;;;5.35;3.47;;;;;;;15.09;100.00;99244.47;5152592;27;20047;-80
2021/07/09 02:44:35;;;;;;;4.88;3.40;;;;;;;15.17;100.00;99248.88;5151690;27;20070;-80
2021/07/09 02:47:02;;;;;;;5.95;3.35;;;;;;;15.10;100.00;99253.50;5152805;27;20078;-80
2021/07/09 02:49:29;;;;;;;7.20;3.70;;;;;;;15.08;100.00;99251.00;5153370;27;20451;-80
2021/07/09 02:51:57;;;;;;;5.68;3.70;;;;;;;15.08;100.00;99244.69;5152814;27;20039;-80
2021/07/09 02:54:23;;;;;;;9.35;3.60;;;;;;;15.06;100.00;99261.31;5152261;27;20043;-80
2021/07/09 02:56:50;;;;;;;6.47;3.70;;;;;;;15.04;100.00;99253.31;5154870;27;20042;-80
2021/07/09 02:59:17;;;;;;;5.60;4.15;;;;;;;14.94;100.00;99249.34;5157609;27;20495;-80
2021/07/09 03:01:44;;;;;;;7.40;3.42;;;;;;;14.99;100.00;99238.56;5156634;27;20099;-80
2021/07/09 03:04:12;;;;;;;6.72;4.07;;;;;;;14.92;100.00;99229.53;5156568;27;20570;-80
2021/07/09 03:06:39;;;;;;;11.43;3.65;;;;;;;14.98;100.00;99242.34;5157015;27;20100;-80
2021/07/09 03:09:08;;;;;;;4.57;3.60;;;;;;;14.90;100.00;99242.59;5156924;27;20138;-79
2021/07/09 03:11:35;;;;;;;7.30;4.38;;;;;;;14.96;100.00;99239.00;5156766;27;20042;-79
2021/07/09 03:14:04;;;;;;;7.78;4.18;;;;;;;15.04;100.00;99247.84;5156747;27;20177;-79
2021/07/09 03:16:31;;;;;;;10.93;4.38;;;;;;;14.93;100.00;99236.69;5156342;27;20138;-80
2021/07/09 03:19:01;;;;;;;6.85;4.35;;;;;;;14.96;100.00;99255.44;5156317;27;20042;-80
2021/07/09 03:21:28;;;;;;;7.97;3.83;;;;;;;14.99;100.00;99258.56;5156461;27;20042;-79
2021/07/09 03:23:54;;;;;;;7.55;3.95;;;;;;;14.91;100.00;99252.50;5155998;27;20478;-79
2021/07/09 03:26:22;;;;;;;6.28;4.18;;;;;;;14.97;100.00;99235.22;5156747;27;20047;-79
2021/07/09 03:28:49;;;;;;;8.40;5.50;;;;;;;14.92;100.00;99249.53;5156971;27;20059;-79
2021/07/09 03:31:16;;;;;;;8.40;4.97;;;;;;;14.96;100.00;99245.31;5156536;27;20090;-79
2021/07/09 03:33:42;;;;;;;9.55;4.68;;;;;;;14.91;100.00;99247.84;5155983;27;20545;-80
2021/07/09 03:36:09;;;;;;;7.43;4.70;;;;;;;14.82;100.00;99249.94;5155889;27;20046;-79
2021/07/09 03:38:36;;;;;;;6.10;4.72;;;;;;;14.92;100.00;99254.16;5156154;27;20074;-79
2021/07/09 03:41:02;;;;;;;6.70;5.38;;;;;;;14.90;100.00;99245.31;5152536;27;20046;-79
2021/07/09 03:43:31;;;;;;;8.35;4.47;;;;;;;14.90;100.00;99248.91;5154847;27;20053;-79
2021/07/09 03:45:57;;;;;;;6.50;4.95;;;;;;;15.02;100.00;99254.56;5155765;27;20050;-79
2021/07/09 03:48:24;;;;;;;9.30;4.63;;;;;;;15.00;100.00;99265.75;5156208;27;21351;-80
2021/07/09 03:50:51;;;;;;;8.45;4.80;;;;;;;14.86;100.00;99243.00;5155984;27;20057;-80
2021/07/09 03:53:18;;;;;;;8.43;4.70;;;;;;;14.97;100.00;99255.22;5155928;27;20054;-79
2021/07/09 03:55:46;;;;;;;8.55;4.25;;;;;;;14.93;100.00;99258.59;5155576;27;20111;-79
2021/07/09 03:58:13;;;;;;;7.30;4.30;;;;;;;15.00;100.00;99267.66;5155948;27;20071;-79
2021/07/09 04:00:41;;;;;;;11.43;4.65;;;;;;;15.00;100.00;99253.97;5155674;27;20102;-79
2021/07/09 04:03:08;;;;;;;9.60;4.75;;;;;;;15.00;100.00;99264.91;5155876;27;20105;-77
2021/07/09 04:05:35;;;;;;;6.82;4.20;;;;;;;14.96;100.00;99263.63;5155381;27;20124;-77
2021/07/09 04:08:01;;;;;;;8.95;4.25;;;;;;;14.95;100.00;99268.28;5155083;27;20107;-79
2021/07/09 04:10:28;;;;;;;8.85;4.65;;;;;;;14.89;100.00;99274.59;5155712;27;20550;-78
2021/07/09 04:12:55;;;;;;;7.13;5.07;;;;;;;14.90;100.00;99267.22;5155828;27;20047;-78
2021/07/09 04:15:21;;;;;;;9.07;4.43;;;;;;;14.91;100.00;99271.66;5155298;27;20054;-78
2021/07/09 04:17:50;;;;;;;10.10;4.80;;;;;;;14.98;100.00;99286.16;5156799;27;20118;-77
2021/07/09 04:20:17;;;;;;;11.30;4.55;;;;;;;14.88;100.00;99281.13;5157556;27;20043;-79
2021/07/09 04:22:44;;;;;;;9.55;4.82;;;;;;;14.80;100.00;99262.19;5157339;27;20064;-78
2021/07/09 04:25:16;;;;;;;8.80;4.85;;;;;;;14.89;100.00;99279.22;5156792;27;20129;-81
2021/07/09 04:27:43;;;;;;;9.70;4.80;;;;;;;14.90;100.00;99291.84;5154116;27;20099;-80
2021/07/09 04:30:12;;;;;;;6.70;4.40;;;;;;;14.89;100.00;99291.03;5155546;27;20054;-81
2021/07/09 04:32:39;;;;;;;12.82;5.15;;;;;;;14.91;100.00;99293.56;5154834;27;20053;-82
2021/07/09 04:35:09;;;;;;;7.25;4.65;;;;;;;14.78;100.00;99292.47;5153560;27;20046;-81
2021/07/09 04:37:35;;;;;;;;;;;;;;;14.83;100.00;99298.16;5155630;27;20039;-81
2021/07/09 04:40:04;;;;;;;8.32;4.97;;;;;;;14.80;100.00;99290.38;5153984;27;20255;-81
2021/07/09 04:42:30;;;;;;;5.82;4.60;;;;;;;14.69;100.00;99293.72;5155726;27;20145;-81
2021/07/09 04:44:58;;;;;;;8.05;4.40;;;;;;;14.72;100.00;99304.25;5154189;27;20047;-82
2021/07/09 04:47:25;;;;;;;12.05;4.72;;;;;;;14.77;100.00;99306.34;5155179;27;20051;-82
2021/07/09 04:49:52;;;;;;;9.70;4.88;;;;;;;14.82;100.00;99315.63;5154771;27;20038;-82
2021/07/09 04:52:20;;;;;;;14.77;5.10;;;;;;;14.65;100.00;99289.75;5154697;27;20398;-83
2021/07/09 04:54:47;;;;;;;8.68;5.38;;;;;;;14.77;100.00;99312.69;5154443;27;20071;-83
2021/07/09 04:57:16;;;;;;;6.03;5.25;;;;;;;14.68;100.00;99298.38;5154904;27;20081;-83
2021/07/09 04:59:43;;;;;;;8.55;4.95;;;;;;;14.63;100.00;99298.16;5155116;27;20103;-83
2021/07/09 05:02:10;;;;;;;18.83;4.93;;;;;;;14.73;100.00;99319.63;5153746;27;20046;-83
2021/07/09 05:04:36;;;;;;;6.82;4.50;;;;;;;14.74;100.00;99320.47;5154479;27;20042;-82
2021/07/09 05:07:04;;;;;;;6.18;3.70;;;;;;;14.63;100.00;99310.97;5154757;27;20039;-83
2021/07/09 05:09:32;;;;;;;4.60;3.88;;;;;;;14.73;100.00;99325.09;5154287;27;20047;-83
2021/07/09 05:11:59;;;;;;;6.80;4.10;;;;;;;14.63;100.00;99311.84;5154313;27;20098;-82
2021/07/09 05:14:27;;;;;;;5.50;3.65;;;;;;;14.66;100.00;99302.34;5154531;27;20047;-81
2021/07/09 05:16:54;;;;;;;5.15;3.40;;;;;;;14.74;100.00;99328.66;5149385;27;20049;-81
2021/07/09 05:19:21;;;;;;;8.20;3.70;;;;;;;14.62;100.00;99315.63;5153584;27;20046;-81
2021/07/09 05:21:48;;;;;;;8.57;4.07;;;;;;;14.64;100.00;99331.81;5153396;27;20129;-82
2021/07/09 05:24:16;;;;;;;11.15;3.83;;;;;;;14.70;100.00;99328.25;5153262;27;20481;-82
2021/07/09 05:26:46;;;;;;;6.35;3.75;;;;;;;14.61;100.00;99327.59;5145049;27;20111;-82
2021/07/09 05:29:13;;;;;;;;;;;;;;;14.71;100.00;99340.03;5154532;27;20050;-82
2021/07/09 05:31:41;;;;;;;9.02;4.25;;;;;;;14.61;100.00;99322.13;5154472;27;19926;-82
2021/07/09 05:34:08;;;;;;;4.13;3.53;;;;;;;14.66;100.00;99340.66;5153599;27;20055;-82
2021/07/09 05:36:36;;;;;;;8.10;4.93;;;;;;;14.72;100.00;99347.19;5154275;27;20047;-82
2021/07/09 05:39:03;;;;;;;9.30;4.35;;;;;;;14.73;100.00;99344.25;5153506;27;20072;-82
2021/07/09 05:41:30;;;;;;;4.93;4.10;;;;;;;14.65;100.00;99347.19;5152849;27;20095;-84
2021/07/09 05:43:58;;;;;;;9.38;4.35;;;;;;;14.63;100.00;99344.66;5153620;27;20046;-83
2021/07/09 05:46:26;;;;;;;6.50;3.95;;;;;;;14.63;100.00;99333.72;5153474;27;20050;-83
2021/07/09 05:48:53;;;;;;;5.90;4.22;;;;;;;14.55;100.00;99347.56;5153225;27;20476;-83
2021/07/09 05:51:20;;;;;;;7.18;3.75;;;;;;;14.64;100.00;99351.81;5153971;27;20051;-82
2021/07/09 05:53:47;;;;;;;7.45;4.65;;;;;;;14.65;100.00;99360.88;5153271;27;20038;-82
2021/07/09 05:56:13;;;;;;;5.35;4.20;;;;;;;14.67;100.00;99364.25;5154156;27;20459;-82
2021/07/09 05:58:40;;;;;;;5.65;3.70;;;;;;;14.59;100.00;99353.44;5153811;27;20110;-83
2021/07/09 06:01:08;;;;;;;7.95;3.97;;;;;;;14.66;100.00;99362.53;5153588;27;20050;-80
2021/07/09 06:03:35;;;;;;;7.05;3.85;;;;;;;14.52;100.00;99365.22;5153338;27;20485;-80
2021/07/09 06:06:02;;;;;;;9.45;4.13;;;;;;;14.57;100.00;99358.28;5152804;27;20054;-82
2021/07/09 06:08:29;;;;;;;7.72;4.30;;;;;;;14.58;100.00;99349.88;5153663;27;20050;-81
2021/07/09 06:10:56;;;;;;;7.15;4.25;;;;;;;14.57;100.00;99364.59;5153519;27;20092;-82
2021/07/09 06:13:23;;;;;;;6.68;4.15;;;;;;;14.46;100.00;99374.25;5153036;27;20043;-82
2021/07/09 06:15:50;;;;;;;9.32;4.25;;;;;;;14.39;100.00;99370.66;5153897;27;20091;-82
2021/07/09 06:18:18;;;;;;;8.57;4.68;;;;;;;14.52;100.00;99383.53;5152965;27;20042;-82
2021/07/09 06:20:45;;;;;;;7.78;4.30;;;;;;;14.57;100.00;99377.44;5153305;27;20266;-82
2021/07/09 06:23:12;;;;;;;6.18;4.45;;;;;;;14.48;100.00;99372.16;5152924;27;20122;-82
2021/07/09 06:25:38;;;;;;;7.30;3.97;;;;;;;14.55;100.00;99390.50;5153494;27;20056;-82
2021/07/09 06:28:06;;;;;;;9.68;4.35;;;;;;;14.58;100.00;99373.66;5148032;27;20137;-81
2021/07/09 06:30:32;;;;;;;6.72;4.38;;;;;;;14.69;100.00;99398.56;5148575;27;20042;-81
2021/07/09 06:32:59;;;;;;;7.28;4.38;;;;;;;14.63;100.00;99385.72;5132560;27;20432;-81
2021/07/09 06:35:29;;;;;;;7.72;4.38;;;;;;;14.77;100.00;99400.28;5143891;27;20620;-81
2021/07/09 06:37:56;;;;;;;7.63;4.45;;;;;;;14.71;100.00;99392.03;5153022;27;20490;-81
2021/07/09 06:40:24;;;;;;;8.43;5.00;;;;;;;14.78;100.00;99401.09;5152892;27;20142;-81
2021/07/09 06:42:51;;;;;;;7.18;4.30;;;;;;;14.94;100.00;99406.19;5147068;27;20058;-80
2021/07/09 06:45:20;;;;;;;7.72;4.65;;;;;;;14.90;100.00;99384.91;5145455;27;20087;-81
2021/07/09 06:47:46;;;;;;;9.38;4.28;;;;;;;14.96;100.00;99412.28;5151442;27;20094;-81
2021/07/09 06:50:14;;;;;;;9.73;4.30;;;;;;;14.85;100.00;99397.31;5153418;27;20051;-81
2021/07/09 06:52:43;;;;;;;15.60;6.38;;;;;;;14.98;100.00;99399.25;5152022;27;20046;-82
2021/07/09 06:55:11;;;;;;;11.60;4.05;;;;;;;14.91;100.00;99417.56;5153363;27;20075;-83
2021/07/09 06:57:38;;;;;;;6.15;4.15;;;;;;;14.90;100.00;99421.34;5152938;27;20061;-81
2021/07/09 07:00:07;;;;;;;12.48;5.57;;;;;;;14.91;100.00;99411.25;5152357;27;20055;-81
2021/07/09 07:02:34;;;;;;;8.82;4.75;;;;;;;15.02;100.00;99429.78;5152878;27;20246;-82
2021/07/09 07:05:01;;;;;;;10.02;4.68;;;;;;;14.99;100.00;99416.53;5144551;27;20131;-81
2021/07/09 07:07:28;;;;;;;8.85;4.60;;;;;;;14.98;100.00;99423.91;5151334;27;20126;-81
2021/07/09 07:09:56;;;;;;;6.65;4.72;;;;;;;15.10;100.00;99435.09;5152493;27;20043;-81
2021/07/09 07:12:26;;;;;;;6.22;4.45;;;;;;;15.08;100.00;99415.25;5152364;27;20043;-80
2021/07/09 07:14:52;;;;;;;7.75;4.55;;;;;;;15.12;100.00;99427.50;5153758;27;20498;-80
2021/07/09 07:17:19;;;;;;;7.18;4.53;;;;;;;15.17;100.00;99430.44;5154808;27;20095;-81
2021/07/09 07:19:46;;;;;;;10.55;4.90;;;;;;;15.16;100.00;99433.38;5153030;27;20107;-82
2021/07/09 07:22:14;;;;;;;6.53;5.00;;;;;;;15.13;100.00;99420.97;5151415;27;20039;-81
2021/07/09 07:24:40;;;;;;;6.95;4.57;;;;;;;15.17;100.00;99433.19;5152701;27;20043;-80
2021/07/09 07:27:09;;;;;;;24.30;7.53;;;;;;;15.02;100.00;99440.75;5152325;27;20058;-81
2021/07/09 07:29:35;;;;;;;12.95;6.05;;;;;;;15.11;100.00;99452.34;5153145;27;20050;-80
2021/07/09 07:32:02;;;;;;;16.65;6.30;;;;;;;15.15;100.00;99442.69;5151942;27;20039;-80
2021/07/09 07:34:29;;;;;;;5.55;4.60;;;;;;;15.18;100.00;99443.09;5153004;27;20051;-81
2021/07/09 07:36:56;;;;;;;6.63;4.32;;;;;;;15.32;100.00;99441.22;5151029;27;20177;-81
2021/07/09 07:39:23;;;;;;;6.93;4.95;;;;;;;15.27;100.00;99440.16;5152983;27;20054;-80
2021/07/09 07:41:49;;;;;;;8.48;4.20;;;;;;;15.25;100.00;99434.03;5152693;27;20047;-81
2021/07/09 07:44:17;;;;;;;9.23;4.68;;;;;;;15.33;100.00;99459.34;5153070;27;20423;-80
2021/07/09 07:46:48;;;;;;;7.43;4.75;;;;;;;15.23;100.00;99445.19;5156901;27;20455;-80
2021/07/09 07:49:18;;;;;;;6.63;4.75;;;;;;;15.23;100.00;99453.41;5156436;27;20042;-80
2021/07/09 07:51:44;;;;;;;7.85;4.45;;;;;;;15.19;100.00;99443.94;5156597;27;20482;-80
2021/07/09 07:54:11;;;;;;;9.63;4.72;;;;;;;15.15;100.00;99438.03;5154373;27;20055;-79
2021/07/09 07:56:38;;;;;;;8.82;5.18;;;;;;;15.39;100.00;99457.66;5156327;27;20087;-79
2021/07/09 07:59:05;;;;;;;6.85;5.00;;;;;;;15.37;100.00;99452.41;5156001;27;20485;-79
2021/07/09 08:01:33;;;;;;;8.10;5.00;;;;;;;15.41;100.00;99452.81;5156064;27;20481;-79
2021/07/09 08:04:00;;;;;;;11.32;4.63;;;;;;;15.50;100.00;99451.56;5155769;27;20047;-79
2021/07/09 08:06:26;;;;;;;9.63;4.80;;;;;;;15.70;100.00;99459.78;5156073;27;20050;-80
2021/07/09 08:08:53;;;;;;;12.70;5.07;;;;;;;15.70;100.00;99443.34;5156280;27;20103;-79
2021/07/09 08:11:20;;;;;;;8.85;4.25;;;;;;;15.77;100.00;99457.03;5154803;27;20039;-80
2021/07/09 08:13:48;;;;;;;11.88;5.03;;;;;;;15.84;100.00;99455.16;5155440;27;20058;-79
2021/07/09 08:16:15;;;;;;;14.07;5.55;;;;;;;16.03;100.00;99458.97;5155944;27;20046;-79
2021/07/09 08:18:44;;;;;;;8.52;4.07;;;;;;;16.23;100.00;99460.81;5155917;27;20439;-78
2021/07/09 08:21:11;;;;;;;12.63;5.00;;;;;;;16.15;100.00;99445.41;5155969;27;20054;-78
2021/07/09 08:23:39;;;;;;;7.85;5.30;;;;;;;16.27;100.00;99459.31;5155203;27;20066;-78
2021/07/09 08:26:06;;;;;;;6.53;4.35;;;;;;;16.14;100.00;99443.75;5155827;27;20053;-79
2021/07/09 08:28:33;;;;;;;6.32;4.45;;;;;;;16.31;100.00;99454.25;5154469;27;20051;-79
2021/07/09 08:30:59;;;;;;;8.15;4.50;;;;;;;16.46;100.00;99465.81;5155988;27;20050;-79
2021/07/09 08:33:26;;;;;;;8.55;4.45;;;;;;;16.64;99.88;99460.44;5155097;27;20046;-78
2021/07/09 08:35:54;;;;;;;10.90;5.13;;;;;;;16.66;100.00;99451.16;5155457;27;20062;-78
2021/07/09 08:38:21;;;;;;;7.25;4.15;;;;;;;16.66;99.15;99465.72;5155406;27;20547;-78
2021/07/09 08:40:48;;;;;;;8.05;4.90;;;;;;;16.84;99.75;99470.50;5155539;27;20530;-78
2021/07/09 08:43:15;;;;;;;9.75;4.50;;;;;;;16.77;98.58;99465.06;5154035;27;20051;-79
2021/07/09 08:45:42;;;;;;;8.23;5.22;;;;;;;16.84;99.85;99466.94;5154300;27;20486;-78
2021/07/09 08:48:09;;;;;;;5.63;4.20;;;;;;;16.88;99.29;99454.47;5155277;27;20043;-78
2021/07/09 08:50:37;;;;;;;8.68;4.72;;;;;;;17.19;97.48;99448.16;5155186;27;20051;-78
2021/07/09 08:53:05;;;;;;;7.60;4.47;;;;;;;17.28;95.67;99460.59;5154713;27;20078;-78
2021/07/09 08:55:33;;;;;;;6.25;3.97;;;;;;;17.27;93.96;99461.63;5151768;27;20047;-78
2021/07/09 08:58:00;;;;;;;7.53;4.63;;;;;;;17.16;94.80;99437.59;5134226;27;20482;-78
2021/07/09 09:00:46;;;;;;;5.00;4.47;;;;;;;17.42;95.37;99466.81;5141911;27;20215;-78
2021/07/09 09:03:15;;;;;;;9.38;5.07;;;;;;;17.73;95.23;99461.50;5154858;27;20051;-78
2021/07/09 09:05:42;;;;;;;7.28;4.68;;;;;;;17.82;89.60;99469.25;5154363;27;20054;-79
2021/07/09 09:08:11;;;;;;;6.95;4.43;;;;;;;18.08;90.55;99461.00;5155330;27;20055;-78
2021/07/09 09:10:40;;;;;;;6.28;4.00;;;;;;;17.97;87.94;99468.09;5154762;27;20053;-79
2021/07/09 09:13:09;;;;;;;5.93;3.95;;;;;;;18.02;88.36;99469.09;5146355;27;20131;-78
2021/07/09 09:15:37;;;;;;;8.02;4.40;;;;;;;18.02;91.13;99463.59;5154687;27;20175;-78
2021/07/09 09:18:19;;;;;;;7.00;4.38;;;;;;;18.10;91.78;99470.72;5154781;27;20074;-78
2021/07/09 09:20:46;;;;;;;5.97;4.05;;;;;;;18.18;89.27;99478.66;5154715;27;20089;-78
2021/07/09 09:23:14;;;;;;;6.05;4.85;;;;;;;18.12;88.14;99473.25;5154194;27;20054;-78
2021/07/09 09:25:41;;;;;;;6.05;4.18;;;;;;;18.18;86.57;99478.66;5154535;27;20082;-78
2021/07/09 09:28:11;;;;;;;11.60;4.85;;;;;;;18.25;86.49;99470.34;5150959;27;20054;-78
2021/07/09 09:30:39;;;;;;;8.10;4.78;;;;;;;18.26;86.74;99465.69;5134083;27;20120;-77
2021/07/09 09:33:11;;;;;;;5.00;4.28;;;;;;;18.77;86.30;99474.63;5148126;27;20083;-77
2021/07/09 09:35:42;;;;;;;5.65;3.90;;;;;;;18.58;83.60;99471.91;5154830;27;20047;-78
2021/07/09 09:38:10;;;;;;;6.18;4.35;;;;;;;18.82;85.70;99470.13;5154018;27;20095;-77
2021/07/09 09:40:40;;;;;;;6.10;4.00;;;;;;;18.81;85.33;99482.22;5154748;27;20106;-77
2021/07/09 09:43:10;;;;;;;6.20;3.92;;;;;;;18.47;84.23;99470.75;5153774;27;20075;-78
2021/07/09 09:45:38;;;;;;;12.13;4.68;;;;;;;18.51;84.36;99484.91;5152811;27;20043;-78
2021/07/09 09:48:11;;;;;;;6.55;3.78;;;;;;;18.51;85.50;99482.97;5152826;27;20043;-78
2021/07/09 09:50:43;;;;;;;4.65;3.80;;;;;;;18.68;85.02;99485.97;5149123;27;20043;-78
2021/07/09 09:53:10;;;;;;;11.82;4.65;;;;;;;18.51;84.00;99477.47;5146378;27;20051;-79
2021/07/09 09:55:39;;;;;;;6.18;4.13;;;;;;;18.75;84.86;99486.72;5140168;27;20073;-78
2021/07/09 09:58:12;;;;;;;8.38;3.88;;;;;;;19.19;83.31;99477.50;5153336;27;20046;-78
2021/07/09 10:00:40;;;;;;;6.43;4.35;;;;;;;19.45;83.11;99485.38;5153848;27;20103;-78
2021/07/09 10:03:08;;;;;;;7.40;4.22;;;;;;;19.86;76.61;99468.19;5153810;27;20125;-78
2021/07/09 10:05:38;;;;;;;7.75;4.53;;;;;;;20.01;76.52;99479.63;5153047;27;20092;-78
2021/07/09 10:08:09;;;;;;;4.95;4.05;;;;;;;20.29;77.42;99483.59;5153492;27;20115;-78
2021/07/09 10:10:36;;;;;;;7.88;4.00;;;;;;;20.41;75.37;99481.63;5152975;27;20074;-78
2021/07/09 10:13:05;;;;;;;10.75;4.40;;;;;;;20.57;73.53;99477.31;5153703;27;20483;-78
2021/07/09 10:15:33;;;;;;;3.95;3.60;;;;;;;20.67;73.25;99476.69;5153445;27;20102;-78
2021/07/09 10:18:00;;;;;;;6.28;3.97;;;;;;;20.80;71.21;99465.38;5153467;27;20046;-79
2021/07/09 10:20:28;;;;;;;4.35;3.38;;;;;;;20.59;71.26;99464.09;5153777;27;20050;-79
2021/07/09 10:23:01;;;;;;;4.40;3.45;;;;;;;20.51;72.33;99479.13;5153042;27;20509;-78
2021/07/09 10:25:30;;;;;;;7.43;4.03;;;;;;;20.73;71.59;99483.19;5153690;27;20447;-78
2021/07/09 10:27:58;;;;;;;7.85;3.55;;;;;;;20.36;70.36;99477.94;5152701;27;20055;-79
2021/07/09 10:30:35;;;;;;;6.07;3.33;;;;;;;20.62;73.07;99482.09;5153684;27;20070;-78
2021/07/09 10:33:03;;;;;;;4.55;3.17;;;;;;;20.56;69.14;99481.13;5151790;27;20047;-78
2021/07/09 10:35:35;;;;;;;6.40;3.28;;;;;;;20.78;70.21;99478.63;5153438;27;20043;-79
2021/07/09 10:38:09;;;;;;;4.50;2.78;;;;;;;21.18;70.11;99471.38;5153094;27;20043;-80
2021/07/09 10:40:37;;;;;;;9.32;3.25;;;;;;;21.28;68.74;99476.28;5152797;27;20047;-79
2021/07/09 10:43:05;;;;;;;6.00;2.90;;;;;;;21.76;68.15;99466.63;5153550;27;20517;-80
2021/07/09 10:45:34;;;;;;;7.75;3.50;;;;;;;22.00;68.08;99461.75;5152755;27;20078;-79
2021/07/09 10:48:10;;;;;;;13.10;3.25;;;;;;;21.98;66.34;99465.88;5153598;27;20046;-80
2021/07/09 10:50:41;;;;;;;5.05;2.70;;;;;;;21.66;64.31;99481.13;5152408;27;20061;-80
2021/07/09 10:53:19;;;;;;;2.85;2.50;;;;;;;21.34;64.44;99478.88;5152868;27;20084;-80
2021/07/09 10:55:53;;;;;;;6.95;2.78;;;;;;;21.49;65.20;99480.25;5152999;27;20470;-79
2021/07/09 10:58:23;;;;;;;5.63;2.83;;;;;;;21.41;65.02;99481.50;5153149;27;20049;-79
2021/07/09 11:00:55;;;;;;;4.47;2.88;;;;;;;20.99;65.62;99487.31;5152772;27;20049;-80
2021/07/09 11:03:35;;;;;;;5.90;2.42;;;;;;;21.32;65.13;99478.28;5153031;27;20038;-79
2021/07/09 11:06:09;;;;;;;7.10;2.40;;;;;;;21.81;65.75;99474.19;5151799;27;20086;-80
2021/07/09 11:08:41;;;;;;;4.78;2.58;;;;;;;22.21;62.35;99471.22;5153596;27;20046;-80
2021/07/09 11:11:10;;;;;;;4.38;2.60;;;;;;;21.97;62.29;99466.97;5152037;27;20485;-79
2021/07/09 11:13:53;;;;;;;6.35;2.60;;;;;;;22.27;62.52;99467.44;5152532;27;20047;-81
2021/07/09 11:16:27;;;;;;;4.28;2.88;;;;;;;21.76;61.65;99457.50;5152691;27;20039;-80
2021/07/09 11:19:10;;;;;;;3.90;2.67;;;;;;;21.52;63.54;99455.72;5156553;27;20248;-81
2021/07/09 11:22:08;;;;;;;5.18;2.60;;;;;;;21.90;62.12;99461.59;5155164;27;20967;-81
2021/07/09 11:24:40;;;;;;;3.70;2.33;;;;;;;22.24;62.52;99461.56;5156579;27;20413;-80
2021/07/09 11:27:08;;;;;;;5.97;2.47;;;;;;;22.36;60.23;99440.16;5156967;27;20447;-81
2021/07/09 11:29:37;;;;;;;5.43;2.17;;;;;;;22.16;60.63;99451.78;5147581;27;20047;-80
2021/07/09 11:32:08;;;;;;;5.23;2.90;;;;;;;22.25;60.15;99443.84;5156916;27;20043;-80